Terminal Aerodrome Forecast
Issued by NWS Cleveland, OH

Home | Current Version | Previous Version | Graphics & Text | Print | Product List | Glossary On
Versions: 1 2 3 4 5 6 7 8 9 10 11 12 13 14 15 16 17 18 19 20 21 22 23 24 25 26 27 28 29 30 31 32 33 34 35 36 37
323
FTUS41 KCLE 250540
TAFCLE
TAF
KCLE 250540Z 2506/2612 13015KT 6SM -RA SCT009 OVC045
     FM250800 17015G25KT 6SM -RA BKN015 OVC040 WS020/19045KT
     FM251000 20018G30KT P6SM BKN015 OVC040
     FM251200 24018G32KT P6SM SCT008 BKN035
     FM252200 25012G20KT P6SM SCT035=

USA.gov is the U.S. government's official web portal to all federal, state and local government web resources and services.